Time;durP1;ratioP1;P1;durP2;ratioP2;P2;SDS_P1;SDS_P2;PMS_P1;PMS_P2;Temp;Humidity;BMP_temperature;BMP_pressure;BME280_temperature;BME280_humidity;BME280_pressure;Samples;Min_cycle;Max_cycle;Signal;HPM_P1;HPM_P2
2022/09/05 00:02:01;;;;;;;11.63;5.45;;;18.00;99.90;;;17.40;100.00;101114.22;4184531;28;20029;-79
2022/09/05 00:04:29;;;;;;;10.15;5.95;;;18.00;99.90;;;17.41;100.00;101118.50;4185243;28;20510;-79
2022/09/05 00:06:36;;;;;;;8.15;4.95;;;18.00;99.90;;;17.40;100.00;101113.38;4184119;28;20025;-79
2022/09/05 00:09:28;;;;;;;8.52;5.72;;;17.90;99.90;;;17.36;100.00;101115.59;4172274;28;20025;-79
2022/09/05 00:11:50;;;;;;;8.65;4.90;;;18.00;99.90;;;17.26;100.00;101104.44;4117792;28;20167;-79
2022/09/05 00:14:11;;;;;;;8.88;5.47;;;17.90;99.90;;;17.31;100.00;101106.53;4166298;28;20420;-78
2022/09/05 00:16:44;;;;;;;7.32;5.35;;;17.90;99.90;;;17.34;100.00;101114.97;4183827;28;20025;-79
2022/09/05 00:18:55;;;;;;;16.40;5.80;;;17.90;99.90;;;17.35;100.00;101124.59;4182345;28;20025;-79
2022/09/05 00:21:26;;;;;;;9.20;5.13;;;17.90;99.90;;;17.25;100.00;101102.78;4185136;28;20037;-79
2022/09/05 00:24:05;;;;;;;11.48;4.78;;;17.90;99.90;;;17.38;100.00;101121.56;4167472;28;20105;-79
2022/09/05 00:26:19;;;;;;;10.30;4.93;;;17.90;99.90;;;17.39;100.00;101125.88;4147999;28;20048;-79
2022/09/05 00:28:43;;;;;;;9.77;4.85;;;18.00;99.90;;;17.37;100.00;101117.25;4187209;28;20074;-79
2022/09/05 00:31:14;;;;;;;8.93;5.15;;;17.90;99.90;;;17.25;100.00;101105.44;4188475;28;20100;-79
2022/09/05 00:33:36;;;;;;;6.30;5.07;;;17.90;99.90;;;17.35;100.00;101111.28;4170481;28;20037;-79
2022/09/05 00:36:11;;;;;;;7.60;5.65;;;17.90;99.90;;;17.29;100.00;101112.06;4187262;28;20021;-79
2022/09/05 00:38:25;;;;;;;10.20;4.90;;;17.90;99.90;;;17.31;100.00;101102.03;4172043;28;20055;-79
2022/09/05 00:40:36;;;;;;;9.10;6.00;;;18.00;99.90;;;17.33;100.00;101112.47;4187027;28;20138;-79
2022/09/05 00:42:37;;;;;;;11.77;5.43;;;18.00;99.90;;;17.43;100.00;101124.50;4187166;28;20029;-79
2022/09/05 00:44:59;;;;;;;9.27;5.60;;;18.00;99.90;;;17.46;100.00;101131.28;4187155;28;20396;-78
2022/09/05 00:47:41;;;;;;;8.25;4.70;;;18.00;99.90;;;17.41;100.00;101123.03;4187533;28;20397;-79
2022/09/05 00:49:58;;;;;;;;;;;;;;;;;;;;;
2022/09/05 00:52:29;;;;;;;8.13;5.07;;;18.00;99.90;;;17.39;100.00;101127.72;4187077;28;20028;-79
2022/09/05 00:55:30;;;;;;;;;;;;;;;;;;;;;
2022/09/05 00:58:02;;;;;;;7.15;5.18;;;17.90;99.90;;;17.30;100.00;101121.69;4136981;28;20042;-79
2022/09/05 01:00:34;;;;;;;9.25;6.65;;;17.90;99.90;;;17.25;100.00;101124.13;4136995;28;20026;-79
2022/09/05 01:03:19;;;;;;;5.53;4.25;;;17.80;99.90;;;17.01;100.00;101092.50;4178654;28;20062;-79
2022/09/05 01:06:00;;;;;;;;;;;;;;;;;;;;;
2022/09/05 01:08:24;;;;;;;11.18;6.47;;;17.70;99.90;;;17.07;100.00;101121.88;4188073;28;20417;-78
2022/09/05 01:11:03;;;;;;;;;;;;;;;;;;;;;
2022/09/05 01:13:32;;;;;;;7.30;5.38;;;17.60;99.90;;;16.98;100.00;101128.34;4155459;28;20037;-79
2022/09/05 01:16:32;;;;;;;;;;;;;;;;;;;;;
2022/09/05 01:19:21;;;;;;;;;;;;;;;;;;;;;
2022/09/05 01:22:02;;;;;;;;;;;;;;;;;;;;;
2022/09/05 01:24:58;;;;;;;;;;;;;;;;;;;;;
2022/09/05 01:27:37;;;;;;;8.68;6.03;;;17.40;99.90;;;16.85;100.00;101124.69;4154299;28;20033;-78
2022/09/05 01:29:51;;;;;;;8.05;5.72;;;17.40;99.90;;;16.71;100.00;101112.22;4153569;28;20022;-78
2022/09/05 01:32:31;;;;;;;;;;;;;;;;;;;;;
2022/09/05 01:35:30;;;;;;;;;;;;;;;;;;;;;
2022/09/05 01:38:07;;;;;;;9.77;6.80;;;17.40;99.90;;;16.72;100.00;101108.56;4153982;28;20513;-79
2022/09/05 01:40:37;;;;;;;;;;;;;;;;;;;;;
2022/09/05 01:43:15;;;;;;;10.38;6.47;;;17.50;99.90;;;16.99;100.00;101123.84;4154227;28;20029;-78
2022/09/05 01:45:41;;;;;;;9.23;6.68;;;17.50;99.90;;;17.00;100.00;101120.97;4170112;28;20049;-78
2022/09/05 01:48:12;;;;;;;;;;;;;;;;;;;;;
2022/09/05 01:50:47;;;;;;;;;;;;;;;;;;;;;
2022/09/05 01:53:20;;;;;;;;;;;;;;;;;;;;;
2022/09/05 01:56:08;;;;;;;;;;;;;;;;;;;;;
2022/09/05 01:58:43;;;;;;;9.20;6.65;;;17.60;99.90;;;16.92;100.00;101109.59;4148153;28;20048;-79
2022/09/05 02:01:23;;;;;;;;;;;;;;;;;;;;;
2022/09/05 02:03:58;;;;;;;;;;;;;;;;;;;;;
2022/09/05 02:06:37;;;;;;;;;;;;;;;;;;;;;
2022/09/05 02:09:25;;;;;;;10.50;7.03;;;17.70;99.90;;;17.09;100.00;101140.34;4154577;28;20030;-79
2022/09/05 02:12:02;;;;;;;11.50;6.78;;;17.80;99.90;;;17.03;100.00;101123.25;4162556;28;20053;-80
2022/09/05 02:14:51;;;;;;;10.05;6.10;;;17.80;99.90;;;17.25;100.00;101165.94;4169462;28;20021;-79
2022/09/05 02:16:56;;;;;;;8.98;6.00;;;17.80;99.90;;;17.27;100.00;101162.06;4167599;28;20061;-80
2022/09/05 02:19:24;;;;;;;7.72;5.57;;;17.80;99.90;;;17.27;100.00;101156.75;4169262;28;20029;-79
2022/09/05 02:21:36;;;;;;;7.18;5.38;;;17.80;99.90;;;17.30;100.00;101158.19;4185193;28;20033;-79
2022/09/05 02:23:51;;;;;;;8.15;5.53;;;17.80;99.90;;;17.27;100.00;101148.75;4170074;28;20025;-79
2022/09/05 02:26:16;;;;;;;12.73;5.60;;;17.80;99.90;;;17.19;100.00;101135.53;4169290;28;20026;-78
2022/09/05 02:28:34;;;;;;;10.77;5.65;;;17.80;99.90;;;17.24;100.00;101151.78;4183858;28;20112;-79
2022/09/05 02:30:43;;;;;;;8.40;5.53;;;17.80;99.90;;;17.25;100.00;101155.28;4169184;28;20032;-79
2022/09/05 02:32:54;;;;;;;6.55;5.40;;;17.80;99.90;;;17.26;100.00;101148.94;4168904;28;20424;-78
2022/09/05 02:35:24;;;;;;;6.47;5.18;;;17.90;99.90;;;17.32;100.00;101156.19;4168698;28;20033;-78
2022/09/05 02:37:42;;;;;;;7.00;4.95;;;17.80;99.90;;;17.31;100.00;101159.84;4170179;28;20049;-79
2022/09/05 02:39:56;;;;;;;9.32;5.45;;;17.80;99.90;;;17.17;100.00;101138.38;4169670;28;20492;-79
2022/09/05 02:42:24;;;;;;;7.60;5.43;;;17.80;99.90;;;17.13;100.00;101133.63;4168878;28;20034;-79
2022/09/05 02:44:56;;;;;;;8.60;4.65;;;17.80;99.90;;;17.32;100.00;101157.03;4153924;28;20040;-79
2022/09/05 02:47:38;;;;;;;7.10;5.53;;;17.90;99.90;;;17.30;100.00;101159.03;4170081;28;20085;-79
2022/09/05 02:50:19;;;;;;;8.38;5.25;;;17.90;99.90;;;17.30;100.00;101158.19;4168177;28;20029;-79
2022/09/05 02:52:25;;;;;;;8.88;5.07;;;17.80;99.90;;;17.17;100.00;101140.25;4168811;28;20033;-79
2022/09/05 02:54:37;;;;;;;5.82;4.78;;;17.90;99.90;;;17.24;100.00;101157.13;4152948;28;20056;-79
2022/09/05 02:57:02;;;;;;;7.50;4.88;;;17.80;99.90;;;17.22;100.00;101155.66;4169257;28;20400;-78
2022/09/05 02:59:31;;;;;;;5.30;4.35;;;17.80;99.90;;;17.15;100.00;101151.09;4168282;28;20061;-78
2022/09/05 03:02:00;;;;;;;9.60;5.32;;;17.70;99.90;;;17.17;100.00;101155.41;4169618;28;20029;-79
2022/09/05 03:04:46;;;;;;;8.40;5.18;;;17.70;99.90;;;17.14;100.00;101148.63;4169665;28;20061;-79
2022/09/05 03:07:16;;;;;;;8.63;5.03;;;17.70;99.90;;;17.10;100.00;101137.50;4168460;28;20543;-79
2022/09/05 03:09:43;;;;;;;7.75;4.38;;;17.70;99.90;;;17.17;100.00;101142.91;4185559;28;20083;-79
2022/09/05 03:12:08;;;;;;;9.98;4.68;;;17.70;99.90;;;17.17;100.00;101146.38;4169479;28;20073;-79
2022/09/05 03:14:37;;;;;;;;;;;17.70;99.90;;;17.05;100.00;101137.22;4170026;28;20113;-79
2022/09/05 03:17:00;;;;;;;6.93;4.72;;;17.70;99.90;;;17.09;100.00;101145.66;4170719;28;20379;-79
2022/09/05 03:19:50;;;;;;;6.20;4.57;;;17.70;99.90;;;17.10;100.00;101147.34;4169756;28;20056;-79
2022/09/05 03:22:27;;;;;;;7.88;4.10;;;17.70;99.90;;;17.01;100.00;101137.81;4166731;28;20026;-79
2022/09/05 03:24:46;;;;;;;8.65;4.82;;;17.70;99.90;;;17.10;100.00;101147.34;4155250;28;20059;-78
2022/09/05 03:27:00;;;;;;;6.07;4.25;;;17.70;99.90;;;17.07;100.00;101140.53;4169300;28;20396;-78
2022/09/05 03:29:22;;;;;;;7.00;4.88;;;17.60;99.90;;;17.08;100.00;101146.72;4169437;28;20025;-79
2022/09/05 03:32:00;;;;;;;4.53;3.75;;;17.60;99.90;;;17.07;100.00;101153.03;4168056;28;20080;-79
2022/09/05 03:34:32;;;;;;;7.28;4.40;;;17.60;99.90;;;17.07;100.00;101150.38;4167951;28;20033;-78
2022/09/05 03:36:45;;;;;;;6.95;4.13;;;17.60;99.90;;;17.10;100.00;101134.00;4167785;28;20029;-79
2022/09/05 03:39:01;;;;;;;5.72;4.53;;;17.60;99.90;;;17.09;100.00;101119.00;4167583;28;20041;-78
2022/09/05 03:41:27;;;;;;;5.07;3.53;;;17.60;99.90;;;17.08;100.00;101118.19;4168686;28;20061;-79
2022/09/05 03:43:50;;;;;;;6.50;4.20;;;17.70;99.90;;;17.09;100.00;101119.00;4169183;28;20061;-78
2022/09/05 03:46:16;;;;;;;6.57;4.10;;;17.60;99.90;;;17.08;100.00;101112.06;4169046;28;20064;-78
2022/09/05 03:48:40;;;;;;;9.10;4.90;;;17.60;99.90;;;17.07;100.00;101108.56;4169040;28;20097;-78
2022/09/05 03:51:18;;;;;;;7.15;4.43;;;17.60;99.90;;;17.04;100.00;101100.09;4167915;28;20036;-78
2022/09/05 03:53:49;;;;;;;6.20;4.07;;;17.60;99.90;;;16.98;100.00;101108.84;4168956;28;20029;-78
2022/09/05 03:56:27;;;;;;;5.93;3.95;;;17.60;99.90;;;16.93;100.00;101103.28;4152111;28;20032;-79
2022/09/05 03:58:50;;;;;;;6.80;4.53;;;17.60;99.90;;;16.98;100.00;101116.84;4152438;28;20040;-78
2022/09/05 04:01:34;;;;;;;5.60;4.55;;;17.50;99.90;;;16.88;100.00;101095.84;4168557;28;20083;-79
2022/09/05 04:03:53;;;;;;;7.15;4.63;;;17.60;99.90;;;16.84;100.00;101078.59;4168122;28;20064;-78
2022/09/05 04:06:26;;;;;;;4.93;3.80;;;17.60;99.90;;;16.87;100.00;101083.53;4167872;28;20028;-79
2022/09/05 04:09:13;;;;;;;6.28;4.72;;;17.60;99.90;;;16.89;100.00;101091.34;4181963;28;20028;-79
2022/09/05 04:11:46;;;;;;;5.22;3.88;;;17.60;99.90;;;17.00;100.00;101136.13;4158067;28;20061;-79
2022/09/05 04:14:09;;;;;;;6.00;4.30;;;17.60;99.90;;;17.06;100.00;101154.03;4167413;28;20512;-78
2022/09/05 04:16:17;;;;;;;6.72;4.55;;;17.60;99.90;;;17.08;100.00;101152.03;4167419;28;20065;-79
2022/09/05 04:18:18;;;;;;;5.68;4.28;;;17.60;99.90;;;17.06;100.00;101154.03;4152383;28;20033;-78
2022/09/05 04:21:08;;;;;;;9.98;5.60;;;17.70;99.90;;;17.14;100.00;101167.28;4152073;28;20045;-79
2022/09/05 04:23:33;;;;;;;6.43;4.72;;;17.70;99.90;;;17.03;100.00;101149.09;4145382;28;20033;-79
2022/09/05 04:26:01;;;;;;;8.30;5.53;;;17.70;99.90;;;17.13;100.00;101165.63;4150343;28;20037;-78
2022/09/05 04:28:42;;;;;;;5.43;4.25;;;17.70;99.90;;;17.14;100.00;101175.28;4146886;28;20033;-79
2022/09/05 04:30:56;;;;;;;5.45;4.45;;;17.70;99.90;;;17.12;100.00;101161.28;4156041;28;20038;-78
2022/09/05 04:33:56;;;;;;;6.50;4.35;;;17.70;99.90;;;17.08;100.00;101171.50;4151132;28;20108;-79
2022/09/05 04:36:24;;;;;;;5.00;4.03;;;17.70;99.90;;;17.13;100.00;101160.28;4146044;28;20041;-79
2022/09/05 04:38:42;;;;;;;7.07;4.60;;;17.70;99.90;;;17.00;100.00;101144.13;4150902;28;20032;-79
2022/09/05 04:41:08;;;;;;;7.47;4.63;;;17.70;99.90;;;17.02;100.00;101147.47;4150911;28;20026;-79
2022/09/05 04:43:22;;;;;;;5.97;3.95;;;17.70;99.90;;;17.18;100.00;101171.19;4150919;28;20441;-79
2022/09/05 04:45:29;;;;;;;8.35;4.53;;;17.70;99.90;;;17.10;100.00;101168.66;4150919;28;20026;-79
2022/09/05 04:47:38;;;;;;;5.80;4.22;;;17.70;99.90;;;17.21;100.00;101184.16;4151336;28;20034;-79
2022/09/05 04:49:46;;;;;;;6.65;4.10;;;17.80;99.90;;;17.22;100.00;101182.31;4151048;28;20037;-79
2022/09/05 04:52:05;;;;;;;7.68;3.95;;;17.80;99.90;;;17.30;100.00;101190.19;4141284;28;20033;-79
2022/09/05 04:54:25;;;;;;;6.50;3.80;;;17.80;99.90;;;17.31;100.00;101186.53;4151133;28;20025;-79
2022/09/05 04:56:33;;;;;;;6.72;4.00;;;17.90;99.90;;;17.37;100.00;101191.94;4152249;28;20029;-79
2022/09/05 04:58:58;;;;;;;8.18;4.30;;;17.90;99.90;;;17.34;100.00;101188.81;4151132;28;20081;-79
2022/09/05 05:01:11;;;;;;;6.75;3.75;;;17.90;99.90;;;17.15;100.00;101167.06;4134975;28;20034;-79
2022/09/05 05:03:22;;;;;;;9.82;3.88;;;17.90;99.90;;;17.21;100.00;101172.66;4166603;28;20032;-79
2022/09/05 05:06:19;;;;;;;6.55;4.13;;;17.90;99.90;;;17.18;100.00;101187.19;4151098;28;20030;-79
2022/09/05 05:08:45;;;;;;;7.25;4.20;;;17.90;99.90;;;17.23;100.00;101205.31;4148548;28;20421;-79
2022/09/05 05:10:58;;;;;;;7.65;4.63;;;17.80;99.90;;;17.08;100.00;101176.03;4151880;28;20050;-79
2022/09/05 05:13:40;;;;;;;8.80;4.57;;;17.80;99.90;;;17.15;100.00;101188.41;4183988;28;20041;-78
2022/09/05 05:16:12;;;;;;;6.70;4.00;;;17.80;99.90;;;17.00;100.00;101168.13;4120636;28;20026;-79
2022/09/05 05:18:39;;;;;;;4.82;4.22;;;17.70;99.90;;;17.10;100.00;101184.66;4113083;28;20111;-79
2022/09/05 05:21:12;;;;;;;11.90;5.30;;;17.70;99.90;;;17.10;100.00;101193.47;4140851;28;20583;-79
2022/09/05 05:23:17;;;;;;;6.72;4.00;;;17.70;99.90;;;17.05;100.00;101184.41;4186693;28;20060;-79
2022/09/05 05:25:18;;;;;;;4.93;3.70;;;17.70;99.90;;;17.05;100.00;101190.53;4164666;28;20505;-79
2022/09/05 05:27:25;;;;;;;6.97;4.38;;;17.70;99.90;;;17.07;100.00;101195.69;4186740;28;20033;-78
2022/09/05 05:29:59;;;;;;;7.55;3.92;;;17.60;99.90;;;17.03;100.00;101199.72;4186292;28;20067;-79
2022/09/05 05:32:03;;;;;;;6.57;3.75;;;17.60;99.90;;;16.92;100.00;101182.41;4150909;28;20056;-79
2022/09/05 05:34:14;;;;;;;;;;;17.60;99.90;;;16.99;100.00;101198.47;4186754;28;20554;-79
2022/09/05 05:36:39;;;;;;;3.63;3.05;;;17.60;99.90;;;16.90;100.00;101172.94;4171184;28;19992;-79
2022/09/05 05:39:06;;;;;;;7.90;3.95;;;17.60;99.90;;;17.03;100.00;101197.91;4187714;28;20033;-79
2022/09/05 05:41:22;;;;;;;6.28;3.65;;;17.60;99.90;;;17.03;100.00;101197.06;4188743;28;20044;-79
2022/09/05 05:43:37;;;;;;;8.27;4.22;;;17.60;99.90;;;16.99;100.00;101187.81;4175212;28;20025;-78
2022/09/05 05:45:38;;;;;;;5.47;3.25;;;17.60;99.90;;;17.01;100.00;101196.44;4186557;28;20025;-79
2022/09/05 05:47:48;;;;;;;4.60;3.47;;;17.60;99.90;;;16.95;100.00;101186.53;4169687;28;20025;-79
2022/09/05 05:50:12;;;;;;;4.75;3.33;;;17.60;99.90;;;17.07;100.00;101199.19;4186241;28;20048;-79
2022/09/05 05:52:36;;;;;;;4.97;3.22;;;17.60;99.90;;;16.98;100.00;101186.16;4186118;28;20040;-79
2022/09/05 05:55:00;;;;;;;5.57;3.27;;;17.60;99.90;;;16.91;100.00;101180.72;4169300;28;20440;-79
2022/09/05 05:57:40;;;;;;;7.13;3.50;;;17.60;99.90;;;16.97;100.00;101182.66;4186296;28;20059;-79
2022/09/05 05:59:56;;;;;;;6.85;3.00;;;17.70;99.90;;;17.10;100.00;101205.97;4186357;28;20056;-79
2022/09/05 06:02:18;;;;;;;7.00;3.45;;;17.70;99.90;;;17.18;100.00;101221.84;4187025;28;20037;-79
2022/09/05 06:04:34;;;;;;;4.03;2.95;;;17.70;99.90;;;17.16;100.00;101210.56;4187061;28;20070;-79
2022/09/05 06:07:01;;;;;;;5.55;3.05;;;17.70;99.90;;;17.24;100.00;101215.78;4187239;28;20093;-79
2022/09/05 06:09:24;;;;;;;5.68;3.38;;;17.70;99.90;;;17.20;100.00;101200.34;4172347;28;20030;-78
2022/09/05 06:12:17;;;;;;;7.38;3.83;;;17.70;99.90;;;17.29;100.00;101216.06;4202006;28;20044;-79
2022/09/05 06:14:58;;;;;;;8.93;4.38;;;17.80;99.90;;;17.37;100.00;101223.09;4187044;28;20128;-79
2022/09/05 06:17:24;;;;;;;6.40;3.40;;;17.90;99.90;;;17.43;100.00;101212.50;4185690;28;20032;-79
2022/09/05 06:20:09;;;;;;;3.60;2.72;;;17.90;99.90;;;17.52;100.00;101219.38;4186851;28;20096;-78
2022/09/05 06:23:06;;;;;;;4.40;2.90;;;18.00;99.90;;;17.58;100.00;101209.81;4185575;28;20028;-78
2022/09/05 06:25:53;;;;;;;6.07;3.38;;;18.10;99.90;;;17.66;100.00;101210.53;4179860;28;20527;-79
2022/09/05 06:28:39;;;;;;;4.80;3.08;;;18.20;99.90;;;17.75;100.00;101191.69;4185541;28;20025;-79
2022/09/05 06:31:09;;;;;;;7.43;3.88;;;18.30;99.90;;;17.91;100.00;101199.44;4201881;28;20052;-80
2022/09/05 06:33:29;;;;;;;4.90;3.28;;;18.40;99.90;;;18.03;100.00;101209.41;4179941;28;20048;-79
2022/09/05 06:36:29;;;;;;;4.88;3.10;;;18.50;99.90;;;18.01;100.00;101186.63;4185993;28;20033;-78
2022/09/05 06:39:12;;;;;;;5.75;3.50;;;18.60;99.90;;;18.17;100.00;101200.50;4185728;28;20037;-79
2022/09/05 06:41:34;;;;;;;3.30;2.80;;;18.70;99.90;;;18.30;100.00;101196.25;4200956;28;20041;-79
2022/09/05 06:44:26;;;;;;;8.15;3.65;;;18.70;99.90;;;18.40;100.00;101205.56;4186504;28;20035;-79
2022/09/05 06:46:34;;;;;;;5.03;2.72;;;18.80;99.90;;;18.37;100.00;101178.44;4186451;28;20021;-79
2022/09/05 06:49:26;;;;;;;5.85;3.08;;;18.90;99.90;;;18.57;100.00;101206.97;4185190;28;20111;-79
2022/09/05 06:52:02;;;;;;;7.15;3.28;;;19.00;99.90;;;18.62;100.00;101182.31;4202043;28;20044;-79
2022/09/05 06:54:45;;;;;;;4.72;2.78;;;19.10;99.90;;;18.76;100.00;101203.56;4186266;28;20021;-79
2022/09/05 06:57:16;;;;;;;4.93;2.55;;;19.20;99.90;;;18.77;100.00;101199.88;4185228;28;20508;-79
2022/09/05 06:59:33;;;;;;;5.30;2.75;;;19.20;99.90;;;18.78;100.00;101198.84;4185174;28;20048;-78
2022/09/05 07:01:47;;;;;;;4.32;2.58;;;19.30;99.90;;;18.80;100.00;101203.97;4184927;28;20033;-79
2022/09/05 07:04:19;;;;;;;5.30;3.25;;;19.30;99.90;;;18.85;100.00;101209.56;4184749;28;20080;-79
2022/09/05 07:07:00;;;;;;;4.30;2.88;;;19.40;99.90;;;18.92;100.00;101210.41;4184701;28;20062;-79
2022/09/05 07:09:27;;;;;;;4.18;2.13;;;19.40;99.90;;;19.03;100.00;101211.69;4166015;28;20037;-79
2022/09/05 07:11:50;;;;;;;3.45;2.38;;;19.50;99.90;;;19.03;100.00;101195.63;4145425;28;20430;-78
2022/09/05 07:14:01;;;;;;;3.85;2.42;;;19.60;99.90;;;19.19;100.00;101214.03;4168292;28;20026;-79
2022/09/05 07:16:15;;;;;;;3.35;2.47;;;19.60;99.90;;;19.19;100.00;101200.66;4153197;28;20388;-79
2022/09/05 07:19:03;;;;;;;4.20;2.17;;;19.70;99.90;;;19.22;100.00;101208.28;4165068;28;20039;-79
2022/09/05 07:21:44;;;;;;;2.80;2.15;;;19.70;99.90;;;19.31;100.00;101221.28;4150766;28;20074;-79
2022/09/05 07:24:01;;;;;;;4.80;2.58;;;19.70;99.90;;;19.28;100.00;101191.41;4144105;28;20046;-79
2022/09/05 07:26:03;;;;;;;4.22;1.90;;;19.90;99.90;;;19.45;100.00;101194.56;4158999;28;20036;-79
2022/09/05 07:28:11;;;;;;;3.22;2.20;;;20.00;99.90;;;19.65;100.00;101195.44;4168100;28;20025;-78
2022/09/05 07:30:12;;;;;;;2.28;1.70;;;20.20;99.90;;;19.73;100.00;101197.91;4167587;28;20034;-79
2022/09/05 07:32:17;;;;;;;3.13;2.03;;;20.30;99.90;;;19.93;100.00;101225.53;4168070;28;20040;-79
2022/09/05 07:34:28;;;;;;;4.50;1.90;;;20.40;99.90;;;20.00;100.00;101228.22;4161685;28;20037;-79
2022/09/05 07:36:48;;;;;;;3.25;1.80;;;20.40;99.90;;;20.08;100.00;101230.66;4152167;28;20033;-79
2022/09/05 07:38:56;;;;;;;2.97;2.30;;;20.50;99.90;;;20.10;100.00;101217.91;4151784;28;20043;-79
2022/09/05 07:41:18;;;;;;;4.10;1.88;;;20.60;99.90;;;20.34;100.00;101220.78;4146009;28;20029;-79
2022/09/05 07:43:35;;;;;;;5.15;2.30;;;20.70;99.90;;;20.40;100.00;101198.53;4153643;28;20107;-79
2022/09/05 07:45:47;;;;;;;4.13;2.05;;;20.90;99.90;;;20.71;100.00;101221.13;4152131;28;20018;-79
2022/09/05 07:48:23;;;;;;;3.40;2.47;;;21.10;99.90;;;20.75;100.00;101188.34;4151431;28;20507;-79
2022/09/05 07:50:25;;;;;;;4.55;2.20;;;21.30;99.90;;;20.89;100.00;101189.94;4167581;28;20110;-79
2022/09/05 07:52:27;;;;;;;3.13;2.03;;;21.40;99.90;;;21.13;100.00;101201.81;4163671;28;20025;-79
2022/09/05 07:54:35;;;;;;;3.50;1.85;;;21.50;99.90;;;21.25;100.00;101193.91;4167140;28;20068;-79
2022/09/05 07:57:02;;;;;;;4.47;1.92;;;21.70;99.90;;;21.40;100.00;101191.78;4151567;28;20034;-79
2022/09/05 07:59:07;;;;;;;2.78;1.60;;;21.90;99.90;;;21.51;100.00;101175.78;4152495;28;20098;-79
2022/09/05 08:01:13;;;;;;;5.25;1.95;;;22.10;99.90;;;21.80;99.95;101198.50;4155504;28;20040;-79
2022/09/05 08:03:14;;;;;;;3.92;1.80;;;22.10;99.90;;;21.77;98.13;101190.91;4167726;28;20021;-79
2022/09/05 08:05:26;;;;;;;3.95;1.60;;;22.20;99.90;;;21.90;98.46;101198.06;4151680;28;20115;-79
2022/09/05 08:07:36;;;;;;;2.72;1.50;;;22.30;99.90;;;22.05;97.10;101206.59;4167710;28;20036;-79
2022/09/05 08:09:58;;;;;;;2.78;1.65;;;22.40;99.90;;;22.24;94.66;101191.34;4151835;28;20037;-79
2022/09/05 08:12:19;;;;;;;3.05;2.28;;;22.70;99.90;;;22.54;92.43;101186.91;4185189;28;20035;-79
2022/09/05 08:14:39;;;;;;;5.03;1.98;;;22.90;99.90;;;22.72;90.86;101211.16;4185339;28;20021;-79
2022/09/05 08:16:41;;;;;;;3.17;1.70;;;23.10;99.90;;;22.84;90.09;101187.84;4185134;28;20032;-79
2022/09/05 08:19:11;;;;;;;4.43;1.70;;;23.30;99.90;;;23.01;87.75;101201.47;4183893;28;20424;-80
2022/09/05 08:21:41;;;;;;;5.07;1.80;;;23.40;99.90;;;22.91;86.90;101183.19;4183009;28;20112;-79
2022/09/05 08:24:10;;;;;;;2.75;1.55;;;23.50;99.90;;;23.04;87.37;101209.94;4183826;28;20029;-79
2022/09/05 08:26:57;;;;;;;9.00;2.55;;;23.70;99.90;;;22.95;85.71;101197.84;4178848;28;20024;-79
2022/09/05 08:29:25;;;;;;;4.47;1.77;;;23.70;99.90;;;22.97;86.37;101201.09;4179958;28;20034;-80
2022/09/05 08:31:43;;;;;;;2.55;1.10;;;23.70;99.90;;;23.16;85.88;101193.84;4167585;28;20053;-80
2022/09/05 08:33:47;;;;;;;3.92;1.40;;;23.80;99.90;;;23.17;84.24;101187.41;4171934;28;20029;-79
2022/09/05 08:36:13;;;;;;;5.57;1.50;;;23.90;99.90;;;23.23;84.32;101188.38;4183875;28;20587;-80
2022/09/05 08:38:17;;;;;;;3.25;1.33;;;23.90;99.90;;;23.13;82.46;101200.50;4199911;28;20028;-80
2022/09/05 08:40:34;;;;;;;6.07;1.73;;;23.90;99.90;;;22.90;81.89;101191.50;4200132;28;20071;-79
2022/09/05 08:43:02;;;;;;;3.75;1.40;;;23.70;99.90;;;22.70;83.09;101207.03;4183918;28;20037;-79
2022/09/05 08:45:30;;;;;;;4.38;1.50;;;23.50;99.90;;;22.32;85.67;101181.13;4187225;28;20047;-80
2022/09/05 08:48:45;;;;;;;3.72;1.60;;;23.20;99.90;;;22.12;86.17;101191.25;4168932;28;20033;-79
2022/09/05 08:51:07;;;;;;;3.42;1.90;;;23.10;99.90;;;21.99;87.37;101192.19;4169569;28;20064;-79
2022/09/05 08:53:38;;;;;;;7.10;1.95;;;22.90;99.90;;;21.95;88.38;101195.56;4186982;28;20033;-79
2022/09/05 08:56:03;;;;;;;3.67;1.63;;;22.80;99.90;;;21.85;88.51;101187.13;4187848;28;20029;-79
2022/09/05 08:58:34;;;;;;;3.30;1.30;;;22.70;99.90;;;21.89;89.63;101183.78;4182586;28;20029;-79
2022/09/05 09:01:21;;;;;;;3.72;1.60;;;22.70;99.90;;;22.03;88.61;101171.91;4171556;28;20033;-79
2022/09/05 09:03:43;;;;;;;3.72;1.80;;;22.80;99.90;;;21.99;87.43;101143.84;4177879;28;20060;-79
2022/09/05 09:06:31;;;;;;;3.58;1.58;;;22.90;99.90;;;22.45;87.02;101180.19;4170491;28;20031;-80
2022/09/05 09:09:05;;;;;;;4.72;1.30;;;23.00;99.90;;;22.63;85.17;101182.06;4145820;28;20033;-79
2022/09/05 09:11:22;;;;;;;3.60;1.65;;;23.20;99.90;;;22.87;83.92;101186.56;4157454;28;20072;-79
2022/09/05 09:13:56;;;;;;;4.15;1.42;;;23.50;99.90;;;22.81;82.52;101157.88;4153675;28;20402;-79
2022/09/05 09:16:16;;;;;;;2.63;1.45;;;23.60;99.90;;;22.80;83.63;101156.22;4139711;28;20026;-79
2022/09/05 09:18:20;;;;;;;1.90;1.20;;;23.60;99.90;;;22.75;84.65;101159.59;4153913;28;20029;-79
2022/09/05 09:20:24;;;;;;;3.70;1.40;;;23.50;99.90;;;22.67;85.82;101151.81;4153640;28;20033;-79
2022/09/05 09:23:04;;;;;;;2.15;1.27;;;23.50;99.90;;;22.95;85.69;101170.09;4154040;28;20034;-79
2022/09/05 09:25:09;;;;;;;1.80;1.10;;;23.50;99.90;;;23.04;84.70;101148.03;4169932;28;20029;-79
2022/09/05 09:27:50;;;;;;;3.90;1.42;;;23.60;99.90;;;23.14;82.73;101151.00;4162941;28;20095;-79
2022/09/05 09:29:57;;;;;;;2.55;1.38;;;23.60;99.90;;;23.17;83.76;101146.22;4142443;28;20045;-79
2022/09/05 09:32:14;;;;;;;3.80;1.52;;;23.60;99.90;;;23.36;82.56;101142.41;4153772;28;20037;-79
2022/09/05 09:34:24;;;;;;;3.45;0.90;;;23.70;99.90;;;23.53;82.66;101159.59;4153637;28;20030;-79
2022/09/05 09:37:02;;;;;;;4.00;1.20;;;23.80;99.90;;;23.60;82.44;101157.59;4154504;28;20083;-79
2022/09/05 09:39:45;;;;;;;3.88;1.90;;;23.90;99.90;;;23.72;77.15;101166.50;4154531;28;20026;-80
2022/09/05 09:42:14;;;;;;;3.08;1.25;;;24.10;99.90;;;24.06;71.54;101168.44;4155752;28;20080;-80
2022/09/05 09:45:18;;;;;;;5.28;1.08;;;24.40;99.90;;;24.47;68.80;101170.19;4154464;28;20088;-80
2022/09/05 09:47:53;;;;;;;2.58;1.17;;;24.70;99.90;;;24.85;66.29;101161.56;4136270;28;20038;-80
2022/09/05 09:50:09;;;;;;;;;;;25.20;99.90;;;25.06;68.40;101152.00;4125880;28;20510;-80
2022/09/05 09:52:43;;;;;;;2.65;0.93;;;25.50;99.90;;;25.54;69.10;101157.75;4131548;28;19909;-80
2022/09/05 09:55:22;;;;;;;2.92;1.10;;;25.90;99.90;;;25.75;66.15;101153.50;4152962;28;20030;-79
2022/09/05 09:57:46;;;;;;;2.20;1.00;;;26.20;99.90;;;25.41;64.66;101127.50;4154198;28;20029;-80
2022/09/05 09:59:46;;;;;;;2.00;0.82;;;26.10;99.90;;;25.44;65.28;101135.13;4136476;28;20127;-79
2022/09/05 10:02:00;;;;;;;2.90;1.10;;;26.00;99.90;;;25.39;65.48;101116.16;4152853;28;20062;-79
2022/09/05 10:04:20;;;;;;;4.63;1.58;;;26.00;99.90;;;25.45;66.42;101129.47;4152962;28;20437;-80
2022/09/05 10:06:30;;;;;;;2.05;0.70;;;26.00;99.90;;;25.20;67.37;101120.94;4154148;28;20026;-79
2022/09/05 10:09:11;;;;;;;1.98;1.10;;;25.80;99.90;;;24.99;65.40;101113.53;4154036;28;20033;-80
2022/09/05 10:11:38;;;;;;;1.88;0.80;;;25.60;99.90;;;24.94;66.73;101127.72;4165808;28;20053;-80
2022/09/05 10:14:40;;;;;;;3.97;0.80;;;25.40;99.90;;;24.85;65.29;101123.78;4154053;28;20061;-80
2022/09/05 10:16:46;;;;;;;5.32;1.20;;;25.40;99.50;;;25.06;66.32;101128.50;4153413;28;20038;-80
2022/09/05 10:19:12;;;;;;;1.83;1.23;;;25.40;99.90;;;25.26;67.17;101126.19;4153796;28;20034;-80
2022/09/05 10:21:59;;;;;;;2.28;0.80;;;25.50;99.90;;;25.27;63.88;101127.81;4154041;28;20025;-80
2022/09/05 10:24:24;;;;;;;2.60;1.33;;;25.60;99.50;;;25.45;65.13;101123.28;4153900;28;20034;-80
2022/09/05 10:26:56;;;;;;;3.03;1.05;;;25.70;99.80;;;25.33;60.33;101122.53;4148734;28;20076;-80
2022/09/05 10:29:12;;;;;;;1.70;0.90;;;25.90;97.60;;;25.41;62.96;101105.91;4153021;28;20097;-79